createdAt,value
2019-05-10T00:00:28.335Z,10.69
2019-05-10T00:03:18.216Z,10.61
2019-05-10T00:06:07.924Z,10.52
2019-05-10T00:08:47.543Z,10.43
2019-05-10T00:11:38.866Z,10.38
2019-05-10T00:14:20.333Z,10.35
2019-05-10T00:16:53.956Z,10.36
2019-05-10T00:19:26.019Z,10.35
2019-05-10T00:21:57.658Z,10.33
2019-05-10T00:24:29.534Z,10.33
2019-05-10T00:27:01.729Z,10.33
2019-05-10T00:29:33.461Z,10.34
2019-05-10T00:32:05.019Z,10.35
2019-05-10T00:34:36.882Z,10.38
2019-05-10T00:37:08.835Z,10.41
2019-05-10T00:39:40.709Z,10.42
2019-05-10T00:42:13.048Z,10.43
2019-05-10T00:44:44.940Z,10.47
2019-05-10T00:47:16.864Z,10.49
2019-05-10T00:49:48.871Z,10.48
2019-05-10T00:52:20.629Z,10.49
2019-05-10T00:54:52.284Z,10.48
2019-05-10T00:57:24.030Z,10.46
2019-05-10T00:59:55.802Z,10.45
2019-05-10T01:02:27.855Z,10.43
2019-05-10T01:04:59.731Z,10.43
2019-05-10T01:07:31.399Z,10.40
2019-05-10T01:10:03.869Z,10.40
2019-05-10T01:12:35.406Z,10.39
2019-05-10T01:15:09.312Z,10.39
2019-05-10T01:17:41.196Z,10.37
2019-05-10T01:20:13.300Z,10.37
2019-05-10T01:22:45.118Z,10.32
2019-05-10T01:25:17.296Z,10.30
2019-05-10T01:27:49.333Z,10.28
2019-05-10T01:30:21.419Z,10.22
2019-05-10T01:32:53.193Z,10.16
2019-05-10T01:35:25.019Z,10.12
2019-05-10T01:37:57.129Z,10.09
2019-05-10T01:40:29.055Z,10.05
2019-05-10T01:43:00.813Z,10.04
2019-05-10T01:45:33.001Z,10.02
2019-05-10T01:48:04.769Z,10.00
2019-05-10T01:50:36.622Z,9.96
2019-05-10T01:53:08.697Z,9.89
2019-05-10T01:55:51.760Z,9.81
2019-05-10T01:58:13.954Z,9.76
2019-05-10T02:00:45.815Z,9.78
2019-05-10T02:03:17.687Z,9.78
2019-05-10T02:05:49.547Z,9.79
2019-05-10T02:12:40.321Z,9.76
2019-05-10T02:15:12.424Z,9.71
2019-05-10T02:17:44.097Z,9.71
2019-05-10T02:20:16.764Z,9.68
2019-05-10T02:22:48.437Z,9.64
2019-05-10T02:25:20.453Z,9.59
2019-05-10T02:27:52.045Z,9.52
2019-05-10T02:30:24.016Z,9.52
2019-05-10T02:32:55.563Z,9.54
2019-05-10T02:35:27.530Z,9.61
2019-05-10T02:37:59.733Z,9.67
2019-05-10T02:40:31.561Z,9.78
2019-05-10T02:43:03.587Z,9.88
2019-05-10T02:45:35.324Z,10.02
2019-05-10T02:48:07.253Z,10.11
2019-05-10T02:50:38.804Z,10.22
2019-05-10T02:53:11.477Z,10.33
2019-05-10T02:55:44.252Z,10.42
2019-05-10T02:58:15.716Z,10.51
2019-05-10T03:00:50.256Z,10.61
2019-05-10T03:03:24.855Z,10.69
2019-05-10T03:05:57.810Z,10.78
2019-05-10T03:08:32.941Z,10.83
2019-05-10T03:11:04.561Z,10.91
2019-05-10T03:13:36.757Z,11.00
2019-05-10T03:16:08.490Z,11.06
2019-05-10T03:18:42.359Z,11.12
2019-05-10T03:21:17.244Z,11.16
2019-05-10T03:23:49.309Z,11.20
2019-05-10T03:26:21.027Z,11.27
2019-05-10T03:28:52.989Z,11.35
2019-05-10T03:31:24.993Z,11.42
2019-05-10T03:33:57.930Z,11.51
2019-05-10T03:36:29.683Z,11.61
2019-05-10T03:39:02.135Z,11.65
2019-05-10T03:41:33.778Z,11.67
2019-05-10T03:44:05.855Z,11.70
2019-05-10T03:46:39.039Z,11.75
2019-05-10T03:49:10.686Z,11.78
2019-05-10T03:51:42.361Z,11.85
2019-05-10T03:54:14.468Z,11.95
2019-05-10T03:56:46.530Z,12.07
2019-05-10T03:59:19.897Z,12.18
2019-05-10T04:01:52.171Z,12.26
2019-05-10T04:04:24.350Z,12.33
2019-05-10T04:06:56.919Z,12.35
2019-05-10T04:09:28.882Z,12.36
2019-05-10T04:12:00.548Z,12.40
2019-05-10T04:14:32.401Z,12.42
2019-05-10T04:17:04.650Z,12.47
2019-05-10T04:19:36.471Z,12.51
2019-05-10T04:22:08.280Z,12.62
2019-05-10T04:24:40.152Z,12.78
2019-05-10T04:27:30.670Z,12.95
2019-05-10T04:29:45.695Z,13.11
2019-05-10T04:32:17.787Z,13.29
2019-05-10T04:34:49.655Z,13.44
2019-05-10T04:37:21.404Z,13.63
2019-05-10T04:39:53.370Z,13.77
2019-05-10T04:42:25.176Z,13.86
2019-05-10T04:44:56.663Z,13.95
2019-05-10T04:47:28.850Z,14.05
2019-05-10T04:50:01.208Z,14.16
2019-05-10T04:52:32.878Z,14.25
2019-05-10T04:55:06.642Z,14.33
2019-05-10T04:57:49.816Z,14.40
2019-05-10T05:00:11.842Z,14.48
2019-05-10T05:02:43.794Z,14.59
2019-05-10T05:05:15.574Z,14.64
2019-05-10T05:07:47.846Z,14.69
2019-05-10T05:10:19.703Z,14.78
2019-05-10T05:12:51.766Z,14.73
2019-05-10T05:15:23.510Z,14.76
2019-05-10T05:17:55.267Z,14.88
2019-05-10T05:20:27.253Z,15.01
2019-05-10T05:22:58.933Z,15.11
2019-05-10T05:25:35.130Z,15.18
2019-05-10T05:28:08.079Z,15.23
2019-05-10T05:30:38.819Z,15.21
2019-05-10T05:33:12.604Z,15.21
2019-05-10T05:35:44.869Z,15.21
2019-05-10T05:38:16.529Z,15.27
2019-05-10T05:40:48.475Z,15.31
2019-05-10T05:43:20.572Z,15.39
2019-05-10T05:45:52.221Z,15.42
2019-05-10T05:48:32.422Z,15.49
2019-05-10T05:50:57.487Z,15.63
2019-05-10T05:53:29.657Z,15.79
2019-05-10T05:56:03.687Z,16.03
2019-05-10T05:58:38.286Z,16.28
2019-05-10T06:01:07.885Z,16.46
2019-05-10T06:03:39.762Z,16.59
2019-05-10T06:06:26.823Z,16.71
2019-05-10T06:08:45.127Z,16.79
2019-05-10T06:11:17.169Z,16.83
2019-05-10T06:13:50.088Z,16.83
2019-05-10T06:16:22.579Z,16.68
2019-05-10T06:18:54.813Z,16.67
2019-05-10T06:21:28.550Z,16.73
2019-05-10T06:24:00.579Z,16.88
2019-05-10T06:26:32.657Z,17.00
2019-05-10T06:29:10.160Z,17.05
2019-05-10T06:31:38.015Z,17.07
2019-05-10T06:34:09.992Z,17.21
2019-05-10T06:36:42.157Z,17.41
2019-05-10T06:39:14.027Z,17.74
2019-05-10T06:41:50.090Z,17.93
2019-05-10T06:44:19.385Z,18.19
2019-05-10T06:46:51.357Z,18.40
2019-05-10T06:49:23.193Z,18.54
2019-05-10T06:51:56.305Z,18.59
2019-05-10T06:54:29.811Z,18.58
2019-05-10T06:57:02.040Z,18.35
2019-05-10T06:59:35.685Z,18.03
2019-05-10T07:02:08.389Z,18.08
2019-05-10T07:04:41.160Z,18.12
2019-05-10T07:07:22.396Z,18.23
2019-05-10T07:10:04.262Z,18.28
2019-05-10T07:12:20.917Z,18.35
2019-05-10T07:14:57.793Z,18.32
2019-05-10T07:17:27.876Z,18.16
2019-05-10T07:20:01.612Z,18.06
2019-05-10T07:22:34.294Z,17.87
2019-05-10T07:25:08.506Z,17.75
2019-05-10T07:27:42.324Z,17.63
2019-05-10T07:30:18.123Z,17.51
2019-05-10T07:32:54.587Z,17.40
2019-05-10T07:35:30.954Z,17.35
2019-05-10T07:37:59.517Z,17.32
2019-05-10T07:40:31.654Z,17.42
2019-05-10T07:43:04.283Z,17.39
2019-05-10T07:45:36.644Z,17.39
2019-05-10T07:48:10.301Z,17.53
2019-05-10T07:50:49.768Z,17.65
2019-05-10T07:53:16.567Z,17.75
2019-05-10T07:55:48.367Z,17.80
2019-05-10T07:58:20.124Z,17.87
2019-05-10T08:00:51.787Z,18.02
2019-05-10T08:03:24.014Z,18.18
2019-05-10T08:06:01.302Z,18.45
2019-05-10T08:08:29.729Z,18.64
2019-05-10T08:11:01.367Z,18.74
2019-05-10T08:13:33.225Z,18.78
2019-05-10T08:16:09.948Z,18.91
2019-05-10T08:18:41.982Z,19.16
2019-05-10T08:21:21.880Z,19.48
2019-05-10T08:23:45.713Z,19.75
2019-05-10T08:26:21.937Z,19.81
2019-05-10T08:28:52.585Z,19.87
2019-05-10T08:31:26.329Z,19.95
2019-05-10T08:33:59.259Z,19.99
2019-05-10T08:36:32.418Z,20.00
2019-05-10T08:39:10.646Z,20.06
2019-05-10T08:41:42.755Z,20.08
2019-05-10T08:44:19.338Z,20.15
2019-05-10T08:46:47.317Z,20.10
2019-05-10T08:49:22.037Z,20.08
2019-05-10T08:51:52.582Z,20.13
2019-05-10T08:54:26.433Z,20.07
2019-05-10T08:57:01.051Z,20.08
2019-05-10T08:59:31.258Z,20.03
2019-05-10T09:02:02.987Z,19.89
2019-05-10T09:04:42.732Z,19.68
2019-05-10T09:07:08.055Z,19.50
2019-05-10T09:09:45.727Z,19.29
2019-05-10T09:12:13.209Z,19.04
2019-05-10T09:14:48.455Z,18.85
2019-05-10T09:17:23.601Z,18.59
2019-05-10T09:19:51.893Z,18.30
2019-05-10T09:22:32.503Z,18.04
2019-05-10T09:24:56.867Z,18.10
2019-05-10T09:27:29.462Z,17.93
2019-05-10T09:30:03.073Z,17.84
2019-05-10T09:32:35.889Z,17.82
2019-05-10T09:35:09.250Z,17.77
2019-05-10T09:37:42.050Z,17.59
2019-05-10T09:40:16.152Z,17.46
2019-05-10T09:42:47.859Z,17.37
2019-05-10T09:45:24.099Z,17.18
2019-05-10T09:47:53.273Z,17.08
2019-05-10T09:50:30.586Z,16.91
2019-05-10T09:52:58.686Z,16.81
2019-05-10T09:55:30.739Z,16.83
2019-05-10T09:58:02.497Z,16.86
2019-05-10T10:00:37.908Z,16.87
2019-05-10T10:03:12.631Z,16.84
2019-05-10T10:05:43.017Z,16.90
2019-05-10T10:08:14.867Z,17.04
2019-05-10T10:10:47.529Z,17.27
2019-05-10T10:13:34.007Z,17.62
2019-05-10T10:15:52.909Z,18.01
2019-05-10T10:18:25.625Z,18.52
2019-05-10T10:20:57.761Z,18.53
2019-05-10T10:23:33.533Z,18.58
2019-05-10T10:26:03.041Z,18.61
2019-05-10T10:28:37.291Z,18.73
2019-05-10T10:31:08.691Z,18.81
2019-05-10T10:33:57.449Z,18.86
2019-05-10T10:36:17.026Z,18.89
2019-05-10T10:38:49.725Z,18.94
2019-05-10T10:41:25.886Z,18.95
2019-05-10T10:43:58.445Z,18.90
2019-05-10T10:46:30.235Z,19.02
2019-05-10T10:49:01.899Z,19.31
2019-05-10T10:51:34.585Z,19.40
2019-05-10T10:54:07.428Z,19.52
2019-05-10T10:56:40.556Z,19.79
2019-05-10T10:59:12.421Z,20.07
2019-05-10T11:01:50.296Z,20.50
2019-05-10T11:04:17.683Z,20.50
2019-05-10T11:06:49.650Z,20.61
2019-05-10T11:09:21.811Z,20.97
2019-05-10T11:11:53.673Z,21.14
2019-05-10T11:14:31.998Z,21.30
2019-05-10T11:17:01.295Z,21.39
2019-05-10T11:19:33.469Z,21.47
2019-05-10T11:22:09.651Z,21.38
2019-05-10T11:24:38.650Z,21.19
2019-05-10T11:27:13.191Z,20.79
2019-05-10T11:29:43.260Z,20.56
2019-05-10T11:32:16.996Z,20.40
2019-05-10T11:34:48.556Z,20.23
2019-05-10T11:37:30.876Z,20.28
2019-05-10T11:39:53.681Z,20.39
2019-05-10T11:42:25.680Z,20.47
2019-05-10T11:45:00.611Z,20.51
2019-05-10T11:47:31.285Z,20.34
2019-05-10T11:50:06.395Z,20.26
2019-05-10T11:52:36.634Z,20.41
2019-05-10T11:55:11.462Z,20.71
2019-05-10T11:57:44.291Z,20.92
2019-05-10T12:00:28.110Z,21.08
2019-05-10T12:05:26.731Z,21.18
2019-05-10T12:07:56.662Z,21.11
2019-05-10T12:10:28.538Z,20.95
2019-05-10T12:13:14.571Z,21.06
2019-05-10T12:15:34.009Z,21.26
2019-05-10T12:18:05.990Z,21.53
2019-05-10T12:20:52.112Z,21.57
2019-05-10T12:25:58.997Z,21.89
2019-05-10T12:25:59.689Z,21.14
2019-05-10T12:26:29.495Z,21.61
2019-05-10T12:28:24.094Z,22.09
2019-05-10T12:30:51.434Z,22.23
2019-05-10T12:33:27.413Z,22.57
2019-05-10T12:35:57.000Z,22.93
2019-05-10T12:38:31.603Z,22.83
2019-05-10T12:41:05.443Z,22.82
2019-05-10T12:43:36.891Z,22.72
2019-05-10T12:46:10.527Z,22.73
2019-05-10T12:48:42.675Z,22.88
2019-05-10T12:51:16.216Z,22.86
2019-05-10T12:53:49.857Z,22.47
2019-05-10T12:56:21.300Z,22.09
2019-05-10T12:58:57.671Z,21.74
2019-05-10T13:01:32.034Z,21.66
2019-05-10T13:04:02.021Z,21.84
2019-05-10T13:06:35.306Z,21.89
2019-05-10T13:09:08.027Z,22.02
2019-05-10T13:11:39.766Z,22.37
2019-05-10T13:14:11.635Z,22.64
2019-05-10T13:16:43.599Z,22.60
2019-05-10T13:19:20.110Z,22.36
2019-05-10T13:21:53.686Z,22.23
2019-05-10T13:24:23.281Z,22.28
2019-05-10T13:26:59.032Z,22.53
2019-05-10T13:29:31.124Z,22.68
2019-05-10T13:32:02.760Z,22.60
2019-05-10T13:34:35.542Z,22.72
2019-05-10T13:37:13.502Z,22.69
2019-05-10T13:39:40.911Z,22.41
2019-05-10T13:42:12.989Z,22.15
2019-05-10T13:44:44.842Z,21.80
2019-05-10T13:47:16.500Z,21.52
2019-05-10T13:49:49.390Z,21.28
2019-05-10T13:52:21.254Z,20.86
2019-05-10T13:54:53.236Z,20.75
2019-05-10T13:57:25.072Z,20.58
2019-05-10T13:59:57.363Z,20.32
2019-05-10T14:02:33.104Z,20.15
2019-05-10T14:05:02.811Z,20.05
2019-05-10T14:07:35.695Z,19.96
2019-05-10T14:10:07.852Z,19.83
2019-05-10T14:12:39.403Z,19.32
2019-05-10T14:15:13.706Z,18.79
2019-05-10T14:17:45.300Z,18.28
2019-05-10T14:20:25.260Z,17.93
2019-05-10T14:22:55.823Z,17.49
2019-05-10T14:25:29.646Z,17.26
2019-05-10T14:27:57.330Z,17.05
2019-05-10T14:30:29.317Z,16.84
2019-05-10T14:33:01.771Z,16.69
2019-05-10T14:35:33.845Z,16.74
2019-05-10T14:38:08.238Z,16.65
2019-05-10T14:40:39.236Z,16.62
2019-05-10T14:43:10.864Z,16.72
2019-05-10T14:45:42.536Z,16.71
2019-05-10T14:48:14.617Z,16.71
2019-05-10T14:50:47.195Z,16.68
2019-05-10T14:53:25.516Z,16.61
2019-05-10T14:55:53.702Z,16.56
2019-05-10T14:58:25.833Z,16.50
2019-05-10T15:00:57.920Z,16.50
2019-05-10T15:03:34.703Z,16.49
2019-05-10T15:06:03.270Z,16.55
2019-05-10T15:08:35.144Z,16.58
2019-05-10T15:11:07.005Z,16.60
2019-05-10T15:13:38.919Z,16.63
2019-05-10T15:16:13.158Z,16.64
2019-05-10T15:18:44.336Z,16.66
2019-05-10T15:21:16.302Z,16.67
2019-05-10T15:23:48.167Z,16.65
2019-05-10T15:26:19.718Z,16.65
2019-05-10T15:28:51.686Z,16.63
2019-05-10T15:31:23.642Z,16.63
2019-05-10T15:33:56.533Z,16.58
2019-05-10T15:36:29.602Z,16.54
2019-05-10T15:39:01.885Z,16.54
2019-05-10T15:41:35.190Z,16.50
2019-05-10T15:44:07.160Z,16.52
2019-05-10T15:46:42.275Z,16.56
2019-05-10T15:49:13.632Z,16.59
2019-05-10T15:51:54.656Z,16.55
2019-05-10T15:54:20.369Z,16.51
2019-05-10T15:56:55.408Z,16.47
2019-05-10T15:59:25.815Z,16.42
2019-05-10T16:01:57.989Z,16.34
2019-05-10T16:04:29.922Z,16.31
2019-05-10T16:07:01.779Z,16.26
2019-05-10T16:09:33.332Z,16.28
2019-05-10T16:12:08.514Z,16.89
2019-05-10T16:14:39.406Z,17.89
2019-05-10T16:17:17.036Z,19.02
2019-05-10T16:19:45.208Z,20.62
2019-05-10T16:22:17.362Z,20.62
2019-05-10T16:24:49.234Z,21.09
2019-05-10T16:27:20.894Z,20.89
2019-05-10T16:29:52.966Z,20.32
2019-05-10T16:32:29.374Z,19.48
2019-05-10T16:34:58.026Z,18.72
2019-05-10T16:37:29.782Z,18.00
2019-05-10T16:40:01.835Z,17.46
2019-05-10T16:42:35.807Z,16.99
2019-05-10T16:45:07.702Z,16.59
2019-05-10T16:47:39.356Z,16.23
2019-05-10T16:50:11.003Z,15.89
2019-05-10T16:52:42.884Z,15.57
2019-05-10T16:55:14.742Z,15.32
2019-05-10T16:57:46.828Z,15.09
2019-05-10T17:00:20.924Z,14.88
2019-05-10T17:02:53.009Z,14.67
2019-05-10T17:05:24.873Z,14.43
2019-05-10T17:07:58.774Z,14.23
2019-05-10T17:10:33.114Z,14.04
2019-05-10T17:13:05.041Z,13.85
2019-05-10T17:15:39.899Z,13.69
2019-05-10T17:18:17.503Z,13.53
2019-05-10T17:20:45.454Z,13.38
2019-05-10T17:23:17.441Z,13.21
2019-05-10T17:25:49.080Z,13.10
2019-05-10T17:28:20.743Z,12.99
2019-05-10T17:30:52.913Z,12.85
2019-05-10T17:33:24.715Z,12.75
2019-05-10T17:36:07.897Z,12.64
2019-05-10T17:38:31.688Z,12.55
2019-05-10T17:41:03.535Z,12.44
2019-05-10T17:43:35.494Z,12.36
2019-05-10T17:46:07.158Z,12.26
2019-05-10T17:48:40.700Z,12.14
2019-05-10T17:51:12.539Z,12.05
2019-05-10T17:53:45.422Z,11.98
2019-05-10T17:56:17.300Z,11.90
2019-05-10T17:58:49.335Z,11.83
2019-05-10T18:01:21.199Z,11.75
2019-05-10T18:03:53.075Z,11.68
2019-05-10T18:06:24.725Z,11.62
2019-05-10T18:08:56.599Z,11.56
2019-05-10T18:11:28.563Z,11.47
2019-05-10T18:14:00.436Z,11.43
2019-05-10T18:16:32.393Z,11.37
2019-05-10T18:19:04.547Z,11.32
2019-05-10T18:21:36.301Z,11.25
2019-05-10T18:24:09.838Z,11.20
2019-05-10T18:26:41.666Z,11.14
2019-05-10T18:29:13.324Z,11.10
2019-05-10T18:31:54.480Z,11.04
2019-05-10T18:34:18.592Z,10.92
2019-05-10T18:36:51.954Z,10.92
2019-05-10T18:39:24.287Z,10.86
2019-05-10T18:41:56.225Z,10.81
2019-05-10T18:44:28.291Z,10.76
2019-05-10T18:47:00.023Z,10.72
2019-05-10T18:49:32.302Z,10.69
2019-05-10T18:52:06.347Z,10.66
2019-05-10T18:54:38.612Z,10.62
2019-05-10T18:57:12.183Z,10.60
2019-05-10T18:59:45.453Z,10.54
2019-05-10T19:02:18.210Z,10.51
2019-05-10T19:04:52.687Z,10.48
2019-05-10T19:07:24.669Z,10.45
2019-05-10T19:09:56.763Z,10.42
2019-05-10T19:12:29.363Z,10.37
2019-05-10T19:15:02.516Z,10.31
2019-05-10T19:17:35.701Z,10.28
2019-05-10T19:20:09.697Z,10.24
2019-05-10T19:22:42.704Z,10.18
2019-05-10T19:25:14.954Z,10.15
2019-05-10T19:27:50.891Z,10.11
2019-05-10T19:30:21.949Z,10.09
2019-05-10T19:32:56.459Z,10.07
2019-05-10T19:35:29.826Z,10.03
2019-05-10T19:38:00.115Z,10.01
2019-05-10T19:40:31.882Z,9.97
2019-05-10T19:43:04.053Z,9.95
2019-05-10T19:45:35.894Z,9.99
2019-05-10T19:48:08.600Z,10.00
2019-05-10T19:50:40.338Z,9.98
2019-05-10T19:53:12.321Z,9.95
2019-05-10T19:55:44.165Z,9.92
2019-05-10T19:58:15.749Z,9.89
2019-05-10T20:00:47.700Z,9.84
2019-05-10T20:03:19.666Z,9.82
2019-05-10T20:05:51.352Z,9.81
2019-05-10T20:08:23.698Z,9.84
2019-05-10T20:10:55.847Z,9.82
2019-05-10T20:13:27.937Z,9.79
2019-05-10T20:16:01.469Z,9.75
2019-05-10T20:18:33.298Z,9.70
2019-05-10T20:21:05.039Z,9.65
2019-05-10T20:23:36.902Z,9.60
2019-05-10T20:26:09.113Z,9.54
2019-05-10T20:28:40.865Z,9.48
2019-05-10T20:31:13.010Z,9.44
2019-05-10T20:33:44.670Z,9.39
2019-05-10T20:36:16.639Z,9.31
2019-05-10T20:38:48.220Z,9.26
2019-05-10T20:41:20.454Z,9.22
2019-05-10T20:43:52.194Z,9.19
2019-05-10T20:46:23.961Z,9.17
2019-05-10T20:48:55.758Z,9.15
2019-05-10T20:51:27.985Z,9.11
2019-05-10T20:54:00.059Z,9.08
2019-05-10T20:56:32.039Z,9.05
2019-05-10T20:59:03.880Z,9.03
2019-05-10T21:01:35.654Z,9.02
2019-05-10T21:04:07.829Z,9.02
2019-05-10T21:06:39.791Z,8.98
2019-05-10T21:09:11.648Z,8.99
2019-05-10T21:11:43.609Z,9.06
2019-05-10T21:14:15.518Z,9.14
2019-05-10T21:16:48.444Z,9.27
2019-05-10T21:19:20.452Z,9.37
2019-05-10T21:21:52.186Z,9.46
2019-05-10T21:24:24.100Z,9.50
2019-05-10T21:26:56.917Z,9.48
2019-05-10T21:29:31.059Z,9.44
2019-05-10T21:32:03.288Z,9.42
2019-05-10T21:34:36.191Z,9.43
2019-05-10T21:37:07.959Z,9.47
2019-05-10T21:39:39.695Z,9.50
2019-05-10T21:42:11.601Z,9.61
2019-05-10T21:44:43.554Z,9.69
2019-05-10T21:47:15.731Z,9.76
2019-05-10T21:49:47.378Z,9.80
2019-05-10T21:52:19.587Z,9.77
2019-05-10T21:54:51.450Z,9.80
2019-05-10T21:57:23.380Z,9.85
2019-05-10T21:59:55.446Z,9.88
2019-05-10T22:02:27.517Z,9.94
2019-05-10T22:05:00.294Z,9.96
2019-05-10T22:07:32.142Z,9.99
2019-05-10T22:10:05.869Z,10.02
2019-05-10T22:12:37.726Z,10.07
2019-05-10T22:15:09.593Z,10.10
2019-05-10T22:17:51.573Z,10.14
2019-05-10T22:20:23.310Z,10.16
2019-05-10T22:22:55.095Z,10.18
2019-05-10T22:25:26.916Z,10.20
2019-05-10T22:27:58.526Z,10.21
2019-05-10T22:30:30.097Z,10.17
2019-05-10T22:33:01.771Z,10.13
2019-05-10T22:35:33.475Z,10.15
2019-05-10T22:38:05.153Z,10.19
2019-05-10T22:40:36.792Z,10.26
2019-05-10T22:43:08.873Z,10.26
2019-05-10T22:45:40.635Z,10.22
2019-05-10T22:48:12.593Z,10.20
2019-05-10T22:50:44.818Z,10.21
2019-05-10T22:53:16.936Z,10.25
2019-05-10T22:55:48.881Z,10.27
2019-05-10T22:58:20.759Z,10.26
2019-05-10T23:00:54.156Z,10.24
2019-05-10T23:03:26.210Z,10.23
2019-05-10T23:05:58.286Z,10.19
2019-05-10T23:08:29.948Z,10.17
2019-05-10T23:11:01.789Z,10.14
2019-05-10T23:13:33.678Z,10.12
2019-05-10T23:16:05.660Z,10.14
2019-05-10T23:18:37.274Z,10.14
2019-05-10T23:21:09.252Z,10.16
2019-05-10T23:23:42.033Z,10.13
2019-05-10T23:26:15.211Z,10.09
2019-05-10T23:28:47.195Z,10.04
2019-05-10T23:31:19.265Z,10.01
2019-05-10T23:33:51.331Z,10.03
2019-05-10T23:36:22.944Z,10.09
2019-05-10T23:38:55.075Z,10.16
2019-05-10T23:41:26.896Z,10.21
2019-05-10T23:43:59.065Z,10.21
2019-05-10T23:46:31.027Z,10.22
2019-05-10T23:49:02.919Z,10.22
2019-05-10T23:51:34.962Z,10.20
2019-05-10T23:54:06.727Z,10.17
2019-05-10T23:56:38.597Z,10.13
2019-05-10T23:59:10.365Z,10.10
